Chie Maru No.10 — JD2376 — position and weather

sailwx.info

Track history (hours):
 
Tides and Currents Weather Stations Pressure Air Temp Water Temp Dewpoint Dewpoint Depression Visibility Wind Speed Wind Dir Waves Ship Positions

Chie Maru No.10

Last reported at 2017-Feb-21 12:16 UTC. Time now 2017-Feb-23 00:22 UTC.
Position N 34°54' E 139°46'.

Length 72 m; draft 4 m.

Type: Ship. MMSI: 431000147.

Date/timePositionNaut miles runAvg speedWind from/ knotsBaromVisibWave heightAir tempDewpointWater temp
2017-Feb-21 12:16N 34°54' E 139°46'811.2
2017-Feb-21 11:33N 35°01' E 139°43'1312.7
2017-Feb-21 10:33N 35°14' E 139°46'1212.1
2017-Feb-21 09:33N 35°24' E 139°39'1 0.7
2017-Feb-21 08:33N 35°24' E 139°38'0 0.0
2017-Feb-21 07:25N 35°24' E 139°38'0 0.0
2017-Feb-21 06:31N 35°24' E 139°38'0 0.0
2017-Feb-21 05:32N 35°24' E 139°38'0 0.0
2017-Feb-21 04:28N 35°24' E 139°38'4 4.8
2017-Feb-21 03:33N 35°23' E 139°43'1 0.5
2017-Feb-21 02:22N 35°22' E 139°44'0 0.0
2017-Feb-21 01:29N 35°22' E 139°44'0 0.0
2017-Feb-21 00:20N 35°22' E 139°44'0 0.1
2017-Feb-20 23:31N 35°22' E 139°44'0 0.1
2017-Feb-20 22:29N 35°22' E 139°44'0 0.0
2017-Feb-20 21:33N 35°22' E 139°44'0 0.0
2017-Feb-20 18:21N 35°22' E 139°44'0 0.0
2017-Feb-20 17:32N 35°22' E 139°44'0 0.0
2017-Feb-20 16:29N 35°22' E 139°44'0 0.0
2017-Feb-20 15:34N 35°22' E 139°44'0 0.0
2017-Feb-20 13:20N 35°22' E 139°44'0 0.1
2017-Feb-20 12:32N 35°22' E 139°44'0 0.1
2017-Feb-20 10:34N 35°23' E 139°44'0 0.1
2017-Feb-20 06:22N 35°23' E 139°44'0 0.1
2017-Feb-20 04:25N 35°23' E 139°44'0 0.0
2017-Feb-20 03:33N 35°23' E 139°44'0 0.0
2017-Feb-20 01:20N 35°23' E 139°44'0 0.0
2017-Feb-20 00:29N 35°23' E 139°44'3 3.1
2017-Feb-19 23:32N 35°24' E 139°40'3 3.3
2017-Feb-19 22:33N 35°22' E 139°44'0 0.0
2017-Feb-19 21:22N 35°22' E 139°44'0 0.0
2017-Feb-19 20:32N 35°22' E 139°44'0 0.1
2017-Feb-19 19:32N 35°22' E 139°44'0 0.1
2017-Feb-19 18:32N 35°22' E 139°44'0 0.0
2017-Feb-19 17:33N 35°22' E 139°44'0 0.0
2017-Feb-19 16:24N 35°22' E 139°44'0 0.0
2017-Feb-19 15:33N 35°22' E 139°44'0 0.1
2017-Feb-19 14:34N 35°22' E 139°44'1110.6
2017-Feb-19 13:33N 35°12' E 139°47'1212.3
2017-Feb-19 12:33N 35°01' E 139°38'  
2017-Feb-13 05:33N 35°22' E 139°42'1111.0
2017-Feb-13 04:33N 35°30' E 139°52'6 0.9
2017-Feb-12 22:33N 35°32' E 139°59'0 0.0
2017-Feb-12 20:21N 35°32' E 139°59'0 0.1
2017-Feb-12 19:33N 35°32' E 139°59'0 0.0
2017-Feb-12 18:27N 35°32' E 139°59'0 0.0
2017-Feb-12 17:33N 35°32' E 139°59'0 0.0
2017-Feb-12 16:33N 35°32' E 139°59'0 0.0
2017-Feb-12 15:33N 35°32' E 139°59'0 0.0
2017-Feb-12 14:33N 35°32' E 139°59'0 0.0
2017-Feb-12 13:33N 35°32' E 139°59'0 0.3
2017-Feb-12 12:33N 35°31' E 139°59'1111.1
2017-Feb-12 11:33N 35°25' E 139°47'  
Track history (hours):
 
Tides and Currents Weather Stations Pressure Air Temp Water Temp Dewpoint Dewpoint Depression Visibility Wind Speed Wind Dir Waves Ship Positions

Chie Maru No.10

Last reported at 2017-Feb-21 12:16 UTC. Time now 2017-Feb-23 00:22 UTC.
Position N 34°54' E 139°46'.

Length 72 m; draft 4 m.

Type: Ship. MMSI: 431000147.

Date/timePositionNaut miles runAvg speedWind from/ knotsBaromVisibWave heightAir tempDewpointWater temp
2017-Feb-21 12:16N 34°54' E 139°46'811.2
2017-Feb-21 11:33N 35°01' E 139°43'1312.7
2017-Feb-21 10:33N 35°14' E 139°46'1212.1
2017-Feb-21 09:33N 35°24' E 139°39'1 0.7
2017-Feb-21 08:33N 35°24' E 139°38'0 0.0
2017-Feb-21 07:25N 35°24' E 139°38'0 0.0
2017-Feb-21 06:31N 35°24' E 139°38'0 0.0
2017-Feb-21 05:32N 35°24' E 139°38'0 0.0
2017-Feb-21 04:28N 35°24' E 139°38'4 4.8
2017-Feb-21 03:33N 35°23' E 139°43'1 0.5
2017-Feb-21 02:22N 35°22' E 139°44'0 0.0
2017-Feb-21 01:29N 35°22' E 139°44'0 0.0
2017-Feb-21 00:20N 35°22' E 139°44'0 0.1
2017-Feb-20 23:31N 35°22' E 139°44'0 0.1
2017-Feb-20 22:29N 35°22' E 139°44'0 0.0
2017-Feb-20 21:33N 35°22' E 139°44'0 0.0
2017-Feb-20 18:21N 35°22' E 139°44'0 0.0
2017-Feb-20 17:32N 35°22' E 139°44'0 0.0
2017-Feb-20 16:29N 35°22' E 139°44'0 0.0
2017-Feb-20 15:34N 35°22' E 139°44'0 0.0
2017-Feb-20 13:20N 35°22' E 139°44'0 0.1
2017-Feb-20 12:32N 35°22' E 139°44'0 0.1
2017-Feb-20 10:34N 35°23' E 139°44'0 0.1
2017-Feb-20 06:22N 35°23' E 139°44'0 0.1
2017-Feb-20 04:25N 35°23' E 139°44'0 0.0
2017-Feb-20 03:33N 35°23' E 139°44'0 0.0
2017-Feb-20 01:20N 35°23' E 139°44'0 0.0
2017-Feb-20 00:29N 35°23' E 139°44'3 3.1
2017-Feb-19 23:32N 35°24' E 139°40'3 3.3
2017-Feb-19 22:33N 35°22' E 139°44'0 0.0
2017-Feb-19 21:22N 35°22' E 139°44'0 0.0
2017-Feb-19 20:32N 35°22' E 139°44'0 0.1
2017-Feb-19 19:32N 35°22' E 139°44'0 0.1
2017-Feb-19 18:32N 35°22' E 139°44'0 0.0
2017-Feb-19 17:33N 35°22' E 139°44'0 0.0
2017-Feb-19 16:24N 35°22' E 139°44'0 0.0
2017-Feb-19 15:33N 35°22' E 139°44'0 0.1
2017-Feb-19 14:34N 35°22' E 139°44'1110.6
2017-Feb-19 13:33N 35°12' E 139°47'1212.3
2017-Feb-19 12:33N 35°01' E 139°38'  
2017-Feb-13 05:33N 35°22' E 139°42'1111.0
2017-Feb-13 04:33N 35°30' E 139°52'6 0.9
2017-Feb-12 22:33N 35°32' E 139°59'0 0.0
2017-Feb-12 20:21N 35°32' E 139°59'0 0.1
2017-Feb-12 19:33N 35°32' E 139°59'0 0.0
2017-Feb-12 18:27N 35°32' E 139°59'0 0.0
2017-Feb-12 17:33N 35°32' E 139°59'0 0.0
2017-Feb-12 16:33N 35°32' E 139°59'0 0.0
2017-Feb-12 15:33N 35°32' E 139°59'0 0.0
2017-Feb-12 14:33N 35°32' E 139°59'0 0.0
2017-Feb-12 13:33N 35°32' E 139°59'0 0.3
2017-Feb-12 12:33N 35°31' E 139°59'1111.1
2017-Feb-12 11:33N 35°25' E 139°47'  

Dump ship's entire track history